createdAt,value
2023-02-11T00:02:29.480Z,57.17
2023-02-11T00:04:57.181Z,62.47
2023-02-11T00:07:24.792Z,57.80
2023-02-11T00:09:52.676Z,53.67
2023-02-11T00:12:20.511Z,52.53
2023-02-11T00:14:50.073Z,54.80
2023-02-11T00:17:17.945Z,55.67
2023-02-11T00:19:45.559Z,53.07
2023-02-11T00:22:13.185Z,57.47
2023-02-11T00:24:40.859Z,52.83
2023-02-11T00:27:08.590Z,53.57
2023-02-11T00:29:36.261Z,55.63
2023-02-11T00:32:06.304Z,60.43
2023-02-11T00:34:34.215Z,56.00
2023-02-11T00:37:01.941Z,59.43
2023-02-11T00:39:30.283Z,54.67
2023-02-11T00:42:00.785Z,57.30
2023-02-11T00:44:28.526Z,59.97
2023-02-11T00:46:56.232Z,57.57
2023-02-11T00:49:25.348Z,56.33
2023-02-11T00:51:53.247Z,55.53
2023-02-11T00:54:20.957Z,56.87
2023-02-11T00:56:48.649Z,52.13
2023-02-11T00:59:16.398Z,58.60
2023-02-11T01:01:44.122Z,55.80
2023-02-11T01:04:11.880Z,52.00
2023-02-11T01:06:40.911Z,55.00
2023-02-11T01:09:09.003Z,56.40
2023-02-11T01:11:36.704Z,49.80
2023-02-11T01:14:05.158Z,52.50
2023-02-11T01:16:32.946Z,47.33
2023-02-11T01:19:00.656Z,49.23
2023-02-11T01:21:28.359Z,48.30
2023-02-11T01:23:57.478Z,45.13
2023-02-11T01:26:25.198Z,47.40
2023-02-11T01:28:53.006Z,49.90
2023-02-11T01:31:20.667Z,51.93
2023-02-11T01:33:49.146Z,49.63
2023-02-11T01:36:16.785Z,52.83
2023-02-11T01:38:45.523Z,51.93
2023-02-11T01:41:15.618Z,47.43
2023-02-11T01:43:46.009Z,51.60
2023-02-11T01:46:31.462Z,45.03
2023-02-11T01:49:03.760Z,52.50
2023-02-11T01:51:37.779Z,48.83
2023-02-11T01:54:27.358Z,50.67
2023-02-11T01:57:17.625Z,53.03
2023-02-11T01:59:52.051Z,50.93
2023-02-11T02:02:24.973Z,48.53
2023-02-11T02:04:57.811Z,47.03
2023-02-11T02:07:31.895Z,50.40
2023-02-11T02:10:05.562Z,53.97
2023-02-11T02:12:34.735Z,52.60
2023-02-11T02:15:26.661Z,48.93
2023-02-11T02:18:04.690Z,51.50
2023-02-11T02:20:53.556Z,49.87
2023-02-11T02:23:39.632Z,50.20
2023-02-11T02:26:42.476Z,47.23
2023-02-11T02:29:46.649Z,45.20
2023-02-11T02:32:42.239Z,49.10
2023-02-11T02:35:17.477Z,49.33
2023-02-11T02:37:52.482Z,44.40
2023-02-11T02:40:24.781Z,45.23
2023-02-11T02:42:53.999Z,49.33
2023-02-11T02:45:21.845Z,49.00
2023-02-11T02:47:50.882Z,43.93
2023-02-11T02:50:25.169Z,47.57
2023-02-11T02:53:04.921Z,44.40
2023-02-11T02:55:45.273Z,49.13
2023-02-11T02:58:35.099Z,45.43
2023-02-11T03:01:14.306Z,49.70
2023-02-11T03:03:55.524Z,42.27
2023-02-11T03:06:31.522Z,46.37
2023-02-11T03:09:05.207Z,48.37
2023-02-11T03:11:33.967Z,47.93
2023-02-11T03:14:05.644Z,46.50
2023-02-11T03:16:39.079Z,43.80
2023-02-11T03:19:13.714Z,47.30
2023-02-11T03:21:44.368Z,44.53
2023-02-11T03:24:17.656Z,50.20
2023-02-11T03:26:49.985Z,44.63
2023-02-11T03:29:22.690Z,43.73
2023-02-11T03:31:57.583Z,49.50
2023-02-11T03:34:31.799Z,49.30
2023-02-11T03:37:04.946Z,46.80
2023-02-11T03:39:37.829Z,47.03
2023-02-11T03:42:08.151Z,44.97
2023-02-11T03:44:41.394Z,45.23
2023-02-11T03:47:11.722Z,48.37
2023-02-11T03:49:42.838Z,46.07
2023-02-11T03:52:12.352Z,40.30
2023-02-11T03:54:43.305Z,41.80
2023-02-11T03:57:11.232Z,40.90
2023-02-11T03:59:53.020Z,43.30
2023-02-11T04:02:21.369Z,44.93
2023-02-11T04:04:50.423Z,45.20
2023-02-11T04:07:18.424Z,41.40
2023-02-11T04:09:46.110Z,42.37
2023-02-11T04:12:13.895Z,41.10
2023-02-11T04:14:41.576Z,42.10
2023-02-11T04:17:09.318Z,39.30
2023-02-11T04:19:37.192Z,35.93
2023-02-11T04:22:07.806Z,34.60
2023-02-11T04:24:36.085Z,40.47
2023-02-11T04:27:03.855Z,38.30
2023-02-11T04:29:32.038Z,39.73
2023-02-11T04:31:59.927Z,37.60
2023-02-11T04:34:27.792Z,47.13
2023-02-11T04:36:55.639Z,43.97
2023-02-11T04:39:24.638Z,44.27
2023-02-11T04:41:52.403Z,44.77
2023-02-11T04:44:21.306Z,48.50
2023-02-11T04:46:48.983Z,45.00
2023-02-11T04:49:17.767Z,41.70
2023-02-11T04:51:48.272Z,41.77
2023-02-11T04:54:17.508Z,41.23
2023-02-11T04:56:46.959Z,39.00
2023-02-11T04:59:15.070Z,36.97
2023-02-11T05:01:46.022Z,41.33
2023-02-11T05:04:13.759Z,41.87
2023-02-11T05:06:41.479Z,35.47
2023-02-11T05:09:09.287Z,34.43
2023-02-11T05:11:39.336Z,33.83
2023-02-11T05:14:08.436Z,40.30
2023-02-11T05:16:36.317Z,36.07
2023-02-11T05:19:04.111Z,37.27
2023-02-11T05:21:31.853Z,32.90
2023-02-11T05:23:59.627Z,36.70
2023-02-11T05:26:27.340Z,35.67
2023-02-11T05:28:55.026Z,36.83
2023-02-11T05:31:24.060Z,33.67
2023-02-11T05:33:51.705Z,33.53
2023-02-11T05:36:19.312Z,31.90
2023-02-11T05:38:46.934Z,29.90
2023-02-11T05:41:14.620Z,31.50
2023-02-11T05:43:42.291Z,32.07
2023-02-11T05:46:10.103Z,33.73
2023-02-11T05:48:39.194Z,32.57
2023-02-11T05:51:06.975Z,31.53
2023-02-11T05:53:34.608Z,31.50
2023-02-11T05:56:02.747Z,31.97
2023-02-11T05:58:30.551Z,31.80
2023-02-11T06:00:58.235Z,30.77
2023-02-11T06:03:25.987Z,33.93
2023-02-11T06:05:55.098Z,27.00
2023-02-11T06:08:22.819Z,29.03
2023-02-11T06:10:50.547Z,31.97
2023-02-11T06:13:19.712Z,29.30
2023-02-11T06:15:57.355Z,31.63
2023-02-11T06:18:25.028Z,31.80
2023-02-11T06:20:52.671Z,28.60
2023-02-11T06:23:21.734Z,30.73
2023-02-11T06:25:49.852Z,29.17
2023-02-11T06:28:17.749Z,28.30
2023-02-11T06:30:45.592Z,29.63
2023-02-11T06:33:13.341Z,28.07
2023-02-11T06:35:41.090Z,30.03
2023-02-11T06:38:08.812Z,27.17
2023-02-11T06:40:37.892Z,28.83
2023-02-11T06:43:05.554Z,27.33
2023-02-11T06:45:33.281Z,30.13
2023-02-11T06:48:00.919Z,29.37
2023-02-11T06:50:28.626Z,26.13
2023-02-11T06:52:56.386Z,29.67
2023-02-11T06:55:23.992Z,26.07
2023-02-11T06:57:53.038Z,29.17
2023-02-11T07:00:20.916Z,30.17
2023-02-11T07:02:48.594Z,28.03
2023-02-11T07:05:16.346Z,29.03
2023-02-11T07:07:44.115Z,27.40
2023-02-11T07:10:11.855Z,29.37
2023-02-11T07:12:39.537Z,25.30
2023-02-11T07:15:09.526Z,25.33
2023-02-11T07:17:37.600Z,27.87
2023-02-11T07:20:05.957Z,26.27
2023-02-11T07:22:34.986Z,28.00
2023-02-11T07:25:02.646Z,27.47
2023-02-11T07:27:30.279Z,24.33
2023-02-11T07:29:57.959Z,25.37
2023-02-11T07:32:27.034Z,26.60
2023-02-11T07:34:55.982Z,24.23
2023-02-11T07:37:23.725Z,26.27
2023-02-11T07:39:51.393Z,25.37
2023-02-11T07:42:19.117Z,23.13
2023-02-11T07:44:50.357Z,23.00
2023-02-11T07:47:18.613Z,25.27
2023-02-11T07:49:47.888Z,25.30
2023-02-11T07:52:15.539Z,26.07
2023-02-11T07:54:43.289Z,24.53
2023-02-11T07:57:11.116Z,27.27
2023-02-11T07:59:38.922Z,23.57
2023-02-11T08:02:06.609Z,20.97
2023-02-11T08:04:34.270Z,22.83
2023-02-11T08:07:03.368Z,24.30
2023-02-11T08:09:33.460Z,24.33
2023-02-11T08:12:02.475Z,20.77
2023-02-11T08:14:30.163Z,23.33
2023-02-11T08:16:57.932Z,23.33
2023-02-11T08:19:25.715Z,21.67
2023-02-11T08:21:56.789Z,20.90
2023-02-11T08:24:25.824Z,20.13
2023-02-11T08:26:53.468Z,19.97
2023-02-11T08:29:21.528Z,19.03
2023-02-11T08:31:49.703Z,21.80
2023-02-11T08:34:19.228Z,19.37
2023-02-11T08:36:48.446Z,18.33
2023-02-11T08:39:20.460Z,18.93
2023-02-11T08:41:51.581Z,19.93
2023-02-11T08:44:20.256Z,22.47
2023-02-11T08:46:48.751Z,18.43
2023-02-11T08:49:17.152Z,17.43
2023-02-11T08:51:46.021Z,20.67
2023-02-11T08:54:14.391Z,20.57
2023-02-11T08:56:42.256Z,18.97
2023-02-11T08:59:14.592Z,17.50
2023-02-11T09:01:44.179Z,15.00
2023-02-11T09:04:12.162Z,18.13
2023-02-11T09:06:40.465Z,17.83
2023-02-11T09:09:11.358Z,19.07
2023-02-11T09:11:40.659Z,18.60
2023-02-11T09:14:08.911Z,20.67
2023-02-11T09:16:38.092Z,19.60
2023-02-11T09:19:06.672Z,20.73
2023-02-11T09:21:34.689Z,23.53
2023-02-11T09:24:02.676Z,21.60
2023-02-11T09:26:33.013Z,18.03
2023-02-11T09:29:02.499Z,20.90
2023-02-11T09:31:33.043Z,20.20
2023-02-11T09:34:04.388Z,18.90
2023-02-11T09:36:37.236Z,16.33
2023-02-11T09:39:09.925Z,20.80
2023-02-11T09:41:52.454Z,18.77
2023-02-11T09:44:24.061Z,20.37
2023-02-11T09:46:56.866Z,18.37
2023-02-11T09:49:32.173Z,15.83
2023-02-11T09:52:06.254Z,16.37
2023-02-11T09:54:40.189Z,17.67
2023-02-11T09:57:22.894Z,15.33
2023-02-11T09:59:56.481Z,19.43
2023-02-11T10:02:29.311Z,18.97
2023-02-11T10:05:21.397Z,17.13
2023-02-11T10:07:57.349Z,16.53
2023-02-11T10:10:41.697Z,18.37
2023-02-11T10:13:30.381Z,17.03
2023-02-11T10:16:07.636Z,18.43
2023-02-11T10:18:47.646Z,17.03
2023-02-11T10:21:26.528Z,16.67
2023-02-11T10:24:00.858Z,18.30
2023-02-11T10:26:31.258Z,20.43
2023-02-11T10:29:05.908Z,16.37
2023-02-11T10:31:38.819Z,16.73
2023-02-11T10:34:08.872Z,16.50
2023-02-11T10:36:39.692Z,20.43
2023-02-11T10:39:13.255Z,21.53
2023-02-11T10:41:44.693Z,17.67
2023-02-11T10:44:24.356Z,20.90
2023-02-11T10:46:52.947Z,16.80
2023-02-11T10:49:36.346Z,22.80
2023-02-11T10:52:25.371Z,17.17
2023-02-11T10:55:06.709Z,18.27
2023-02-11T10:57:38.261Z,20.27
2023-02-11T11:00:22.822Z,17.67
2023-02-11T11:02:58.126Z,19.17
2023-02-11T11:05:34.218Z,23.80
2023-02-11T11:08:07.250Z,22.20
2023-02-11T11:10:44.977Z,19.33
2023-02-11T11:13:28.369Z,19.27
2023-02-11T11:16:25.918Z,22.63
2023-02-11T11:19:10.357Z,20.10
2023-02-11T11:21:42.789Z,17.93
2023-02-11T11:24:21.869Z,21.40
2023-02-11T11:26:53.979Z,23.77
2023-02-11T11:29:27.035Z,22.67
2023-02-11T11:31:58.112Z,22.00
2023-02-11T11:34:30.994Z,22.90
2023-02-11T11:37:00.661Z,23.37
2023-02-11T11:39:32.608Z,24.80
2023-02-11T11:42:02.110Z,21.80
2023-02-11T11:44:32.731Z,26.20
2023-02-11T11:47:20.651Z,22.00
2023-02-11T11:49:56.958Z,22.80
2023-02-11T11:52:38.557Z,23.90
2023-02-11T11:55:16.961Z,23.57
2023-02-11T11:57:44.961Z,25.93
2023-02-11T12:00:19.206Z,21.70
2023-02-11T12:03:19.560Z,22.47
2023-02-11T12:06:00.285Z,21.73
2023-02-11T12:08:37.983Z,23.13
2023-02-11T12:11:17.464Z,21.83
2023-02-11T12:14:01.175Z,23.63
2023-02-11T12:16:37.752Z,22.30
2023-02-11T12:19:43.486Z,21.47
2023-02-11T12:22:12.598Z,24.53
2023-02-11T12:24:53.663Z,25.40
2023-02-11T12:27:35.307Z,22.03
2023-02-11T12:30:20.324Z,23.23
2023-02-11T12:32:53.980Z,24.57
2023-02-11T12:35:41.650Z,28.00
2023-02-11T12:38:30.470Z,26.70
2023-02-11T12:41:10.868Z,24.90
2023-02-11T12:43:41.035Z,21.83
2023-02-11T12:46:35.006Z,28.23
2023-02-11T12:49:26.151Z,34.37
2023-02-11T12:52:08.568Z,25.33
2023-02-11T12:54:42.808Z,26.73
2023-02-11T12:57:19.271Z,29.47
2023-02-11T12:59:56.670Z,26.10
2023-02-11T13:02:38.488Z,22.67
2023-02-11T13:05:16.424Z,27.37
2023-02-11T13:07:47.396Z,25.90
2023-02-11T13:10:26.360Z,29.53
2023-02-11T13:13:13.560Z,25.73
2023-02-11T13:15:44.965Z,26.53
2023-02-11T13:18:32.680Z,34.20
2023-02-11T13:21:20.426Z,24.43
2023-02-11T13:23:58.057Z,23.00
2023-02-11T13:26:32.821Z,22.77
2023-02-11T13:29:16.907Z,23.83
2023-02-11T13:31:54.508Z,20.30
2023-02-11T13:34:28.130Z,23.17
2023-02-11T13:36:58.197Z,23.17
2023-02-11T13:39:26.101Z,23.20
2023-02-11T13:42:04.323Z,21.77
2023-02-11T13:44:35.414Z,33.40
2023-02-11T13:47:06.460Z,20.30
2023-02-11T13:49:41.054Z,21.53
2023-02-11T13:52:23.348Z,24.23
2023-02-11T13:54:53.827Z,27.03
2023-02-11T13:57:30.740Z,20.03
2023-02-11T14:00:00.456Z,20.90
2023-02-11T14:02:50.513Z,25.23
2023-02-11T14:05:50.233Z,23.93
2023-02-11T14:08:43.620Z,19.50
2023-02-11T14:11:46.031Z,21.50
2023-02-11T14:14:33.530Z,21.87
2023-02-11T14:17:30.843Z,23.57
2023-02-11T14:20:03.235Z,22.30
2023-02-11T14:22:32.881Z,22.63
2023-02-11T14:25:02.539Z,22.40
2023-02-11T14:27:34.266Z,19.83
2023-02-11T14:30:21.349Z,21.23
2023-02-11T14:33:08.492Z,24.63
2023-02-11T14:35:44.962Z,22.07
2023-02-11T14:38:23.665Z,21.77
2023-02-11T14:40:59.404Z,20.23
2023-02-11T14:43:32.374Z,19.63
2023-02-11T14:46:03.868Z,26.70
2023-02-11T14:48:36.031Z,22.17
2023-02-11T14:51:09.084Z,24.33
2023-02-11T14:53:39.133Z,24.03
2023-02-11T14:56:18.813Z,21.03
2023-02-11T14:58:49.032Z,19.60
2023-02-11T15:01:30.081Z,22.07
2023-02-11T15:04:00.573Z,21.87
2023-02-11T15:06:32.888Z,24.20
2023-02-11T15:09:05.068Z,22.03
2023-02-11T15:11:39.010Z,21.97
2023-02-11T15:14:11.695Z,23.50
2023-02-11T15:16:43.838Z,20.20
2023-02-11T15:19:24.085Z,22.70
2023-02-11T15:21:54.180Z,22.37
2023-02-11T15:24:25.865Z,23.73
2023-02-11T15:26:58.013Z,23.77
2023-02-11T15:29:26.526Z,23.97
2023-02-11T15:32:09.034Z,22.93
2023-02-11T15:34:37.520Z,25.77
2023-02-11T15:37:06.839Z,23.90
2023-02-11T15:39:37.840Z,23.47
2023-02-11T15:42:26.281Z,24.47
2023-02-11T15:45:11.755Z,23.30
2023-02-11T15:47:40.538Z,23.20
2023-02-11T15:50:09.275Z,23.87
2023-02-11T15:52:38.378Z,27.40
2023-02-11T15:55:06.735Z,23.87
2023-02-11T15:57:35.115Z,28.97
2023-02-11T16:00:07.125Z,24.43
2023-02-11T16:02:38.610Z,25.40
2023-02-11T16:05:09.360Z,24.23
2023-02-11T16:07:43.856Z,22.40
2023-02-11T16:10:19.379Z,23.53
2023-02-11T16:12:53.797Z,25.77
2023-02-11T16:15:45.164Z,25.90
2023-02-11T16:18:37.399Z,23.27
2023-02-11T16:21:08.729Z,28.50
2023-02-11T16:23:42.377Z,22.93
2023-02-11T16:26:21.581Z,25.17
2023-02-11T16:28:50.162Z,24.87
2023-02-11T16:31:18.516Z,25.40
2023-02-11T16:33:46.501Z,23.40
2023-02-11T16:36:17.148Z,21.83
2023-02-11T16:38:46.210Z,23.17
2023-02-11T16:41:14.341Z,26.50
2023-02-11T16:43:42.052Z,24.47
2023-02-11T16:46:11.993Z,24.60
2023-02-11T16:48:39.715Z,23.77
2023-02-11T16:51:09.229Z,24.50
2023-02-11T16:53:36.924Z,24.17
2023-02-11T16:56:06.576Z,25.63
2023-02-11T16:58:34.361Z,23.37
2023-02-11T17:01:02.291Z,28.37
2023-02-11T17:03:31.339Z,24.60
2023-02-11T17:05:59.355Z,25.90
2023-02-11T17:08:27.348Z,26.43
2023-02-11T17:10:55.152Z,29.27
2023-02-11T17:13:24.227Z,25.30
2023-02-11T17:15:52.287Z,28.10
2023-02-11T17:18:20.148Z,25.37
2023-02-11T17:20:47.928Z,26.27
2023-02-11T17:23:15.683Z,23.27
2023-02-11T17:25:43.495Z,30.33
2023-02-11T17:28:12.177Z,25.63
2023-02-11T17:30:43.634Z,30.07
2023-02-11T17:33:11.356Z,29.73
2023-02-11T17:35:40.964Z,28.07
2023-02-11T17:38:08.707Z,27.50
2023-02-11T17:40:36.399Z,26.10
2023-02-11T17:43:04.489Z,26.63
2023-02-11T17:45:32.336Z,28.83
2023-02-11T17:48:01.414Z,24.87
2023-02-11T17:50:29.566Z,27.83
2023-02-11T17:52:58.092Z,25.63
2023-02-11T17:55:25.742Z,28.10
2023-02-11T17:57:53.722Z,26.73
2023-02-11T18:00:22.855Z,29.17
2023-02-11T18:02:50.627Z,25.13
2023-02-11T18:05:19.768Z,28.50
2023-02-11T18:07:48.414Z,28.60
2023-02-11T18:10:16.312Z,28.73
2023-02-11T18:12:44.393Z,26.10
2023-02-11T18:15:12.690Z,24.43
2023-02-11T18:17:40.395Z,27.63
2023-02-11T18:20:09.689Z,27.90
2023-02-11T18:22:41.005Z,26.07
2023-02-11T18:25:10.359Z,30.10
2023-02-11T18:27:38.210Z,29.70
2023-02-11T18:30:07.124Z,26.27
2023-02-11T18:32:34.834Z,34.00
2023-02-11T18:35:02.577Z,33.80
2023-02-11T18:37:30.219Z,29.90
2023-02-11T18:39:59.228Z,27.97
2023-02-11T18:42:28.098Z,29.77
2023-02-11T18:44:55.749Z,28.07
2023-02-11T18:47:24.707Z,33.77
2023-02-11T18:49:52.421Z,34.00
2023-02-11T18:52:20.051Z,27.97
2023-02-11T18:54:47.757Z,26.60
2023-02-11T18:57:16.869Z,23.97
2023-02-11T18:59:44.720Z,26.63
2023-02-11T19:02:12.476Z,27.07
2023-02-11T19:04:40.290Z,27.20
2023-02-11T19:07:08.632Z,29.70
2023-02-11T19:09:36.539Z,28.63
2023-02-11T19:12:04.686Z,24.73
2023-02-11T19:14:34.820Z,27.27
2023-02-11T19:17:06.423Z,27.97
2023-02-11T19:19:36.095Z,29.43
2023-02-11T19:22:10.680Z,28.37
2023-02-11T19:24:39.085Z,29.93
2023-02-11T19:27:07.098Z,25.77
2023-02-11T19:29:36.269Z,25.60
2023-02-11T19:32:05.784Z,28.27
2023-02-11T19:34:40.959Z,28.53
2023-02-11T19:37:10.756Z,33.43
2023-02-11T19:39:38.541Z,28.80
2023-02-11T19:42:06.620Z,31.60
2023-02-11T19:44:36.825Z,29.30
2023-02-11T19:47:14.741Z,27.73
2023-02-11T19:49:42.440Z,30.10
2023-02-11T19:52:10.479Z,29.37
2023-02-11T19:54:41.724Z,27.80
2023-02-11T19:57:09.537Z,28.70
2023-02-11T19:59:37.294Z,34.47
2023-02-11T20:02:06.416Z,30.47
2023-02-11T20:04:34.242Z,33.80
2023-02-11T20:07:02.360Z,29.77
2023-02-11T20:09:31.049Z,34.50
2023-02-11T20:11:59.460Z,28.37
2023-02-11T20:14:28.158Z,30.50
2023-02-11T20:16:56.486Z,28.37
2023-02-11T20:19:26.068Z,26.13
2023-02-11T20:21:57.930Z,28.20
2023-02-11T20:24:27.008Z,29.17
2023-02-11T20:26:56.067Z,30.80
2023-02-11T20:29:26.269Z,30.27
2023-02-11T20:31:54.905Z,29.40
2023-02-11T20:34:23.453Z,31.67
2023-02-11T20:36:54.298Z,25.07
2023-02-11T20:39:23.180Z,31.07
2023-02-11T20:41:52.482Z,30.93
2023-02-11T20:44:21.707Z,29.10
2023-02-11T20:46:49.880Z,29.13
2023-02-11T20:49:22.480Z,30.07
2023-02-11T20:51:53.895Z,32.87
2023-02-11T20:54:22.957Z,32.07
2023-02-11T20:56:51.796Z,27.63
2023-02-11T20:59:19.758Z,31.60
2023-02-11T21:01:50.537Z,27.83
2023-02-11T21:04:21.079Z,28.63
2023-02-11T21:06:50.491Z,27.63
2023-02-11T21:09:21.777Z,30.87
2023-02-11T21:11:51.537Z,31.83
2023-02-11T21:14:20.792Z,34.50
2023-02-11T21:16:48.924Z,32.60
2023-02-11T21:19:17.094Z,28.17
2023-02-11T21:21:45.360Z,30.93
2023-02-11T21:24:13.200Z,29.17
2023-02-11T21:26:42.605Z,30.20
2023-02-11T21:29:10.697Z,30.47
2023-02-11T21:31:39.229Z,31.60
2023-02-11T21:34:07.749Z,33.93
2023-02-11T21:36:35.723Z,29.30
2023-02-11T21:39:04.182Z,28.90
2023-02-11T21:41:32.024Z,31.03
2023-02-11T21:44:01.130Z,29.57
2023-02-11T21:46:29.309Z,29.67
2023-02-11T21:48:58.328Z,31.53
2023-02-11T21:51:26.633Z,29.60
2023-02-11T21:53:55.499Z,32.73
2023-02-11T21:56:23.781Z,29.57
2023-02-11T21:58:54.629Z,29.97
2023-02-11T22:01:25.689Z,27.33
2023-02-11T22:03:53.580Z,29.57
2023-02-11T22:06:26.156Z,29.77
2023-02-11T22:08:54.845Z,31.87
2023-02-11T22:11:23.052Z,32.20
2023-02-11T22:13:54.668Z,29.57
2023-02-11T22:16:24.455Z,33.03
2023-02-11T22:18:52.416Z,32.57
2023-02-11T22:21:22.510Z,31.10
2023-02-11T22:23:50.619Z,32.77
2023-02-11T22:26:23.919Z,34.93
2023-02-11T22:28:52.467Z,33.20
2023-02-11T22:31:22.354Z,39.47
2023-02-11T22:33:52.050Z,34.80
2023-02-11T22:36:23.332Z,31.80
2023-02-11T22:38:52.680Z,30.93
2023-02-11T22:41:21.383Z,34.00
2023-02-11T22:43:49.693Z,35.87
2023-02-11T22:46:19.461Z,35.33
2023-02-11T22:48:48.977Z,30.43
2023-02-11T22:51:20.588Z,35.97
2023-02-11T22:53:54.176Z,34.77
2023-02-11T22:56:22.500Z,37.73
2023-02-11T22:58:50.984Z,36.53
2023-02-11T23:01:20.217Z,37.13
2023-02-11T23:03:49.740Z,33.83
2023-02-11T23:06:19.030Z,35.67
2023-02-11T23:08:47.670Z,34.33
2023-02-11T23:11:18.370Z,34.00
2023-02-11T23:13:50.432Z,34.17
2023-02-11T23:16:20.884Z,33.80
2023-02-11T23:18:49.902Z,35.67
2023-02-11T23:21:23.327Z,34.70
2023-02-11T23:23:55.959Z,33.90
2023-02-11T23:26:23.984Z,36.37
2023-02-11T23:28:51.866Z,34.70
2023-02-11T23:31:25.979Z,37.60
2023-02-11T23:33:54.865Z,37.80
2023-02-11T23:36:28.653Z,36.33
2023-02-11T23:38:56.995Z,36.73
2023-02-11T23:41:25.382Z,36.57
2023-02-11T23:44:00.394Z,41.03
2023-02-11T23:46:29.188Z,37.03
2023-02-11T23:48:58.998Z,37.07
2023-02-11T23:51:28.720Z,40.87
2023-02-11T23:53:58.701Z,39.07
2023-02-11T23:56:28.272Z,37.67
2023-02-11T23:59:00.120Z,37.47
